sensor_id;sensor_type;location;lat;lon;timestamp;temperature;humidity
35129;DHT22;21301;43.626;10.580;2022-10-31T00:02:03;13.10;99.90
35129;DHT22;21301;43.626;10.580;2022-10-31T00:04:30;13.00;99.90
35129;DHT22;21301;43.626;10.580;2022-10-31T00:06:55;13.10;99.90
35129;DHT22;21301;43.626;10.580;2022-10-31T00:09:21;13.10;99.90
35129;DHT22;21301;43.626;10.580;2022-10-31T00:11:47;13.10;99.90
35129;DHT22;21301;43.626;10.580;2022-10-31T00:14:13;13.10;99.90
35129;DHT22;21301;43.626;10.580;2022-10-31T00:16:39;13.10;99.90
35129;DHT22;21301;43.626;10.580;2022-10-31T00:19:06;13.10;99.90
35129;DHT22;21301;43.626;10.580;2022-10-31T00:21:32;13.10;99.90
35129;DHT22;21301;43.626;10.580;2022-10-31T00:23:58;13.10;99.90
35129;DHT22;21301;43.626;10.580;2022-10-31T00:26:26;13.00;99.90
35129;DHT22;21301;43.626;10.580;2022-10-31T00:28:52;13.00;99.90
35129;DHT22;21301;43.626;10.580;2022-10-31T00:31:18;13.00;99.90
35129;DHT22;21301;43.626;10.580;2022-10-31T00:33:44;13.00;99.90
35129;DHT22;21301;43.626;10.580;2022-10-31T00:36:16;13.00;99.90
35129;DHT22;21301;43.626;10.580;2022-10-31T00:38:42;13.00;99.90
35129;DHT22;21301;43.626;10.580;2022-10-31T00:41:10;13.00;99.90
35129;DHT22;21301;43.626;10.580;2022-10-31T00:43:39;13.00;99.90
35129;DHT22;21301;43.626;10.580;2022-10-31T00:46:04;13.00;99.90
35129;DHT22;21301;43.626;10.580;2022-10-31T00:48:30;13.00;99.90
35129;DHT22;21301;43.626;10.580;2022-10-31T00:50:56;13.00;99.90
35129;DHT22;21301;43.626;10.580;2022-10-31T00:53:23;12.90;99.90
35129;DHT22;21301;43.626;10.580;2022-10-31T00:55:48;12.90;99.90
35129;DHT22;21301;43.626;10.580;2022-10-31T00:58:14;12.90;99.90
35129;DHT22;21301;43.626;10.580;2022-10-31T01:00:40;12.90;99.90
35129;DHT22;21301;43.626;10.580;2022-10-31T01:03:06;12.90;99.90
35129;DHT22;21301;43.626;10.580;2022-10-31T01:05:32;13.00;99.90
35129;DHT22;21301;43.626;10.580;2022-10-31T01:07:58;13.00;99.90
35129;DHT22;21301;43.626;10.580;2022-10-31T01:10:26;13.00;99.90
35129;DHT22;21301;43.626;10.580;2022-10-31T01:12:52;12.90;99.90
35129;DHT22;21301;43.626;10.580;2022-10-31T01:15:22;12.80;99.90
35129;DHT22;21301;43.626;10.580;2022-10-31T01:17:48;12.70;99.90
35129;DHT22;21301;43.626;10.580;2022-10-31T01:20:15;12.60;99.90
35129;DHT22;21301;43.626;10.580;2022-10-31T01:22:41;12.60;99.90
35129;DHT22;21301;43.626;10.580;2022-10-31T01:25:08;12.60;99.90
35129;DHT22;21301;43.626;10.580;2022-10-31T01:27:34;12.60;99.90
35129;DHT22;21301;43.626;10.580;2022-10-31T01:30:00;12.60;99.90
35129;DHT22;21301;43.626;10.580;2022-10-31T01:32:27;12.50;99.90
35129;DHT22;21301;43.626;10.580;2022-10-31T01:34:54;12.50;99.90
35129;DHT22;21301;43.626;10.580;2022-10-31T01:37:20;12.40;99.90
35129;DHT22;21301;43.626;10.580;2022-10-31T01:39:48;12.40;99.90
35129;DHT22;21301;43.626;10.580;2022-10-31T01:42:22;12.30;99.90
35129;DHT22;21301;43.626;10.580;2022-10-31T01:44:54;12.30;99.90
35129;DHT22;21301;43.626;10.580;2022-10-31T01:50:06;12.10;99.90
35129;DHT22;21301;43.626;10.580;2022-10-31T01:52:44;12.00;99.90
35129;DHT22;21301;43.626;10.580;2022-10-31T01:55:28;12.00;99.90
35129;DHT22;21301;43.626;10.580;2022-10-31T01:58:02;12.00;99.90
35129;DHT22;21301;43.626;10.580;2022-10-31T02:00:30;12.00;99.90
35129;DHT22;21301;43.626;10.580;2022-10-31T02:02:56;12.00;99.90
35129;DHT22;21301;43.626;10.580;2022-10-31T02:05:24;12.00;99.90
35129;DHT22;21301;43.626;10.580;2022-10-31T02:08:27;12.10;99.90
35129;DHT22;21301;43.626;10.580;2022-10-31T02:10:56;12.00;99.90
35129;DHT22;21301;43.626;10.580;2022-10-31T02:13:23;12.00;99.90
35129;DHT22;21301;43.626;10.580;2022-10-31T02:15:53;12.00;99.90
35129;DHT22;21301;43.626;10.580;2022-10-31T02:18:20;12.00;99.90
35129;DHT22;21301;43.626;10.580;2022-10-31T02:28:58;12.10;99.90
35129;DHT22;21301;43.626;10.580;2022-10-31T02:34:01;12.10;99.90
35129;DHT22;21301;43.626;10.580;2022-10-31T02:36:30;12.10;99.90
35129;DHT22;21301;43.626;10.580;2022-10-31T02:39:18;12.10;99.90
35129;DHT22;21301;43.626;10.580;2022-10-31T02:47:16;11.90;99.90
35129;DHT22;21301;43.626;10.580;2022-10-31T02:52:24;11.80;99.90
35129;DHT22;21301;43.626;10.580;2022-10-31T02:54:51;11.70;99.90
35129;DHT22;21301;43.626;10.580;2022-10-31T02:57:24;11.70;99.90
35129;DHT22;21301;43.626;10.580;2022-10-31T02:59:54;11.70;99.90
35129;DHT22;21301;43.626;10.580;2022-10-31T03:11:04;11.50;99.90
35129;DHT22;21301;43.626;10.580;2022-10-31T03:13:53;11.50;99.90
35129;DHT22;21301;43.626;10.580;2022-10-31T03:16:46;11.50;99.90
35129;DHT22;21301;43.626;10.580;2022-10-31T03:19:36;11.40;99.90
35129;DHT22;21301;43.626;10.580;2022-10-31T03:22:15;11.40;99.90
35129;DHT22;21301;43.626;10.580;2022-10-31T03:24:43;11.30;99.90
35129;DHT22;21301;43.626;10.580;2022-10-31T03:27:14;11.20;99.90
35129;DHT22;21301;43.626;10.580;2022-10-31T03:29:42;11.10;99.90
35129;DHT22;21301;43.626;10.580;2022-10-31T03:32:20;11.10;99.90
35129;DHT22;21301;43.626;10.580;2022-10-31T03:34:48;11.10;99.90
35129;DHT22;21301;43.626;10.580;2022-10-31T03:37:18;11.10;99.90
35129;DHT22;21301;43.626;10.580;2022-10-31T03:39:47;11.10;99.90
35129;DHT22;21301;43.626;10.580;2022-10-31T03:42:20;11.10;99.90
35129;DHT22;21301;43.626;10.580;2022-10-31T03:45:06;11.10;99.90
35129;DHT22;21301;43.626;10.580;2022-10-31T03:47:35;11.10;99.90
35129;DHT22;21301;43.626;10.580;2022-10-31T03:50:03;11.20;99.90
35129;DHT22;21301;43.626;10.580;2022-10-31T03:52:57;11.20;99.90
35129;DHT22;21301;43.626;10.580;2022-10-31T03:55:32;11.30;99.90
35129;DHT22;21301;43.626;10.580;2022-10-31T03:58:08;11.30;99.90
35129;DHT22;21301;43.626;10.580;2022-10-31T04:00:38;11.40;99.90
35129;DHT22;21301;43.626;10.580;2022-10-31T04:03:11;11.40;99.90
35129;DHT22;21301;43.626;10.580;2022-10-31T04:05:40;11.40;99.90
35129;DHT22;21301;43.626;10.580;2022-10-31T04:08:11;11.40;99.90
35129;DHT22;21301;43.626;10.580;2022-10-31T04:10:38;11.50;99.90
35129;DHT22;21301;43.626;10.580;2022-10-31T04:13:09;11.40;99.90
35129;DHT22;21301;43.626;10.580;2022-10-31T04:15:45;11.30;99.90
35129;DHT22;21301;43.626;10.580;2022-10-31T04:18:12;11.30;99.90
35129;DHT22;21301;43.626;10.580;2022-10-31T04:20:40;11.30;99.90
35129;DHT22;21301;43.626;10.580;2022-10-31T04:23:26;11.30;99.90
35129;DHT22;21301;43.626;10.580;2022-10-31T04:25:53;11.20;99.90
35129;DHT22;21301;43.626;10.580;2022-10-31T04:28:19;11.30;99.90
35129;DHT22;21301;43.626;10.580;2022-10-31T04:30:45;11.30;99.90
35129;DHT22;21301;43.626;10.580;2022-10-31T04:33:11;11.20;99.90
35129;DHT22;21301;43.626;10.580;2022-10-31T04:35:37;11.20;99.90
35129;DHT22;21301;43.626;10.580;2022-10-31T04:38:03;11.10;99.90
35129;DHT22;21301;43.626;10.580;2022-10-31T04:40:29;11.10;99.90
35129;DHT22;21301;43.626;10.580;2022-10-31T04:43:21;11.00;99.90
35129;DHT22;21301;43.626;10.580;2022-10-31T04:45:47;11.00;99.90
35129;DHT22;21301;43.626;10.580;2022-10-31T04:48:13;10.90;99.90
35129;DHT22;21301;43.626;10.580;2022-10-31T04:50:41;11.00;99.90
35129;DHT22;21301;43.626;10.580;2022-10-31T04:53:08;11.00;99.90
35129;DHT22;21301;43.626;10.580;2022-10-31T04:55:42;10.90;99.90
35129;DHT22;21301;43.626;10.580;2022-10-31T04:58:16;10.90;99.90
35129;DHT22;21301;43.626;10.580;2022-10-31T05:00:43;10.90;99.90
35129;DHT22;21301;43.626;10.580;2022-10-31T05:03:09;11.00;99.90
35129;DHT22;21301;43.626;10.580;2022-10-31T05:05:35;11.00;99.90
35129;DHT22;21301;43.626;10.580;2022-10-31T05:08:02;10.90;99.90
35129;DHT22;21301;43.626;10.580;2022-10-31T05:10:31;11.00;99.90
35129;DHT22;21301;43.626;10.580;2022-10-31T05:13:00;10.90;99.90
35129;DHT22;21301;43.626;10.580;2022-10-31T05:15:45;10.90;99.90
35129;DHT22;21301;43.626;10.580;2022-10-31T05:18:34;10.90;99.90
35129;DHT22;21301;43.626;10.580;2022-10-31T05:21:29;10.90;99.90
35129;DHT22;21301;43.626;10.580;2022-10-31T05:23:59;10.90;99.90
35129;DHT22;21301;43.626;10.580;2022-10-31T05:26:25;10.90;99.90
35129;DHT22;21301;43.626;10.580;2022-10-31T05:28:52;10.90;99.90
35129;DHT22;21301;43.626;10.580;2022-10-31T05:31:19;10.90;99.90
35129;DHT22;21301;43.626;10.580;2022-10-31T05:33:44;10.90;99.90
35129;DHT22;21301;43.626;10.580;2022-10-31T05:36:10;10.90;99.90
35129;DHT22;21301;43.626;10.580;2022-10-31T05:39:02;10.90;99.90
35129;DHT22;21301;43.626;10.580;2022-10-31T05:41:35;10.90;99.90
35129;DHT22;21301;43.626;10.580;2022-10-31T05:44:05;10.90;99.90
35129;DHT22;21301;43.626;10.580;2022-10-31T05:46:38;10.90;99.90
35129;DHT22;21301;43.626;10.580;2022-10-31T05:49:25;10.90;99.90
35129;DHT22;21301;43.626;10.580;2022-10-31T05:52:02;10.80;99.90
35129;DHT22;21301;43.626;10.580;2022-10-31T05:54:38;10.80;99.90
35129;DHT22;21301;43.626;10.580;2022-10-31T05:57:04;10.80;99.90
35129;DHT22;21301;43.626;10.580;2022-10-31T05:59:30;10.80;99.90
35129;DHT22;21301;43.626;10.580;2022-10-31T06:01:57;10.90;99.90
35129;DHT22;21301;43.626;10.580;2022-10-31T06:04:46;11.00;99.90
35129;DHT22;21301;43.626;10.580;2022-10-31T06:07:12;10.90;99.90
35129;DHT22;21301;43.626;10.580;2022-10-31T06:09:38;10.90;99.90
35129;DHT22;21301;43.626;10.580;2022-10-31T06:12:05;10.90;99.90
35129;DHT22;21301;43.626;10.580;2022-10-31T06:14:54;11.00;99.90
35129;DHT22;21301;43.626;10.580;2022-10-31T06:17:20;11.10;99.90
35129;DHT22;21301;43.626;10.580;2022-10-31T06:19:46;11.10;99.90
35129;DHT22;21301;43.626;10.580;2022-10-31T06:22:16;11.10;99.90
35129;DHT22;21301;43.626;10.580;2022-10-31T06:24:43;11.20;99.90
35129;DHT22;21301;43.626;10.580;2022-10-31T06:27:29;11.20;99.90
35129;DHT22;21301;43.626;10.580;2022-10-31T06:29:57;11.60;99.90
35129;DHT22;21301;43.626;10.580;2022-10-31T06:32:34;12.40;99.90
35129;DHT22;21301;43.626;10.580;2022-10-31T06:34:59;13.20;99.90
35129;DHT22;21301;43.626;10.580;2022-10-31T06:37:25;13.90;99.90
35129;DHT22;21301;43.626;10.580;2022-10-31T06:39:54;14.40;99.90
35129;DHT22;21301;43.626;10.580;2022-10-31T06:42:20;14.90;99.90
35129;DHT22;21301;43.626;10.580;2022-10-31T06:44:45;15.50;99.90
35129;DHT22;21301;43.626;10.580;2022-10-31T06:47:34;16.10;99.90
35129;DHT22;21301;43.626;10.580;2022-10-31T06:50:05;16.70;99.90
35129;DHT22;21301;43.626;10.580;2022-10-31T06:52:31;17.10;99.90
35129;DHT22;21301;43.626;10.580;2022-10-31T06:54:57;17.20;99.90
35129;DHT22;21301;43.626;10.580;2022-10-31T06:57:22;17.30;99.90
35129;DHT22;21301;43.626;10.580;2022-10-31T06:59:48;17.30;99.90
35129;DHT22;21301;43.626;10.580;2022-10-31T07:02:21;17.50;99.90
35129;DHT22;21301;43.626;10.580;2022-10-31T07:04:48;17.20;99.90
35129;DHT22;21301;43.626;10.580;2022-10-31T07:07:16;17.40;99.90
35129;DHT22;21301;43.626;10.580;2022-10-31T07:09:43;17.60;99.90
35129;DHT22;21301;43.626;10.580;2022-10-31T07:12:12;17.70;99.90
35129;DHT22;21301;43.626;10.580;2022-10-31T07:14:45;18.10;99.90
35129;DHT22;21301;43.626;10.580;2022-10-31T07:17:11;18.30;99.90
35129;DHT22;21301;43.626;10.580;2022-10-31T07:19:40;18.60;99.90
35129;DHT22;21301;43.626;10.580;2022-10-31T07:22:07;18.40;99.90
35129;DHT22;21301;43.626;10.580;2022-10-31T07:24:34;18.80;99.90
35129;DHT22;21301;43.626;10.580;2022-10-31T07:27:14;19.10;99.90
35129;DHT22;21301;43.626;10.580;2022-10-31T07:29:43;19.10;99.90
35129;DHT22;21301;43.626;10.580;2022-10-31T07:32:10;18.30;99.90
35129;DHT22;21301;43.626;10.580;2022-10-31T07:34:42;17.30;99.90
35129;DHT22;21301;43.626;10.580;2022-10-31T07:37:16;16.90;99.90
35129;DHT22;21301;43.626;10.580;2022-10-31T07:39:42;16.60;99.90
35129;DHT22;21301;43.626;10.580;2022-10-31T07:42:08;16.30;99.90
35129;DHT22;21301;43.626;10.580;2022-10-31T07:44:35;16.20;99.90
35129;DHT22;21301;43.626;10.580;2022-10-31T07:47:19;16.00;99.90
35129;DHT22;21301;43.626;10.580;2022-10-31T07:50:04;16.00;99.90
35129;DHT22;21301;43.626;10.580;2022-10-31T07:53:04;16.20;99.90
35129;DHT22;21301;43.626;10.580;2022-10-31T07:55:52;16.40;99.90
35129;DHT22;21301;43.626;10.580;2022-10-31T07:58:18;16.50;99.90
35129;DHT22;21301;43.626;10.580;2022-10-31T08:00:46;16.60;99.90
35129;DHT22;21301;43.626;10.580;2022-10-31T08:03:17;16.90;99.90
35129;DHT22;21301;43.626;10.580;2022-10-31T08:05:49;17.10;99.90
35129;DHT22;21301;43.626;10.580;2022-10-31T08:08:33;17.40;99.90
35129;DHT22;21301;43.626;10.580;2022-10-31T08:10:59;17.60;99.90
35129;DHT22;21301;43.626;10.580;2022-10-31T08:13:24;17.60;99.90
35129;DHT22;21301;43.626;10.580;2022-10-31T08:15:51;17.60;99.90
35129;DHT22;21301;43.626;10.580;2022-10-31T08:18:23;17.70;99.90
35129;DHT22;21301;43.626;10.580;2022-10-31T08:20:49;17.90;99.90
35129;DHT22;21301;43.626;10.580;2022-10-31T08:23:15;18.00;99.90
35129;DHT22;21301;43.626;10.580;2022-10-31T08:25:42;18.20;99.90
35129;DHT22;21301;43.626;10.580;2022-10-31T08:28:10;18.60;99.90
35129;DHT22;21301;43.626;10.580;2022-10-31T08:30:37;19.10;99.90
35129;DHT22;21301;43.626;10.580;2022-10-31T08:33:21;18.90;99.90
35129;DHT22;21301;43.626;10.580;2022-10-31T08:36:22;18.70;99.90
35129;DHT22;21301;43.626;10.580;2022-10-31T08:38:48;18.90;99.90
35129;DHT22;21301;43.626;10.580;2022-10-31T08:41:15;19.20;99.90
35129;DHT22;21301;43.626;10.580;2022-10-31T08:43:42;19.10;99.90
35129;DHT22;21301;43.626;10.580;2022-10-31T08:46:07;19.20;99.90
35129;DHT22;21301;43.626;10.580;2022-10-31T08:48:33;19.50;99.90
35129;DHT22;21301;43.626;10.580;2022-10-31T08:51:01;19.40;99.90
35129;DHT22;21301;43.626;10.580;2022-10-31T08:53:28;19.70;99.90
35129;DHT22;21301;43.626;10.580;2022-10-31T08:56:19;19.70;99.90
35129;DHT22;21301;43.626;10.580;2022-10-31T08:58:45;19.90;99.90
35129;DHT22;21301;43.626;10.580;2022-10-31T09:01:11;20.20;99.90
35129;DHT22;21301;43.626;10.580;2022-10-31T09:03:37;20.70;99.90
35129;DHT22;21301;43.626;10.580;2022-10-31T09:06:04;20.80;99.90
35129;DHT22;21301;43.626;10.580;2022-10-31T09:08:34;20.90;99.90
35129;DHT22;21301;43.626;10.580;2022-10-31T09:11:03;21.40;99.90
35129;DHT22;21301;43.626;10.580;2022-10-31T09:13:47;21.40;99.90
35129;DHT22;21301;43.626;10.580;2022-10-31T09:16:42;21.80;99.90
35129;DHT22;21301;43.626;10.580;2022-10-31T09:19:14;21.50;99.90
35129;DHT22;21301;43.626;10.580;2022-10-31T09:21:44;21.70;99.90
35129;DHT22;21301;43.626;10.580;2022-10-31T09:24:11;21.50;99.90
35129;DHT22;21301;43.626;10.580;2022-10-31T09:26:37;21.60;99.90
35129;DHT22;21301;43.626;10.580;2022-10-31T09:29:16;21.80;99.90
35129;DHT22;21301;43.626;10.580;2022-10-31T09:31:43;21.70;99.90
35129;DHT22;21301;43.626;10.580;2022-10-31T09:34:23;21.80;99.90
35129;DHT22;21301;43.626;10.580;2022-10-31T09:37:02;21.60;99.90
35129;DHT22;21301;43.626;10.580;2022-10-31T09:39:28;21.70;99.90
35129;DHT22;21301;43.626;10.580;2022-10-31T09:45:06;21.50;99.90
35129;DHT22;21301;43.626;10.580;2022-10-31T09:48:08;21.90;99.90
35129;DHT22;21301;43.626;10.580;2022-10-31T09:51:07;21.80;99.90
35129;DHT22;21301;43.626;10.580;2022-10-31T09:54:05;22.10;99.90
35129;DHT22;21301;43.626;10.580;2022-10-31T09:56:32;22.20;99.90
35129;DHT22;21301;43.626;10.580;2022-10-31T09:59:01;22.50;99.90
35129;DHT22;21301;43.626;10.580;2022-10-31T10:01:48;22.50;99.90
35129;DHT22;21301;43.626;10.580;2022-10-31T10:04:37;22.40;99.90
35129;DHT22;21301;43.626;10.580;2022-10-31T10:08:07;22.40;99.90
35129;DHT22;21301;43.626;10.580;2022-10-31T10:22:36;22.80;99.90
35129;DHT22;21301;43.626;10.580;2022-10-31T10:25:49;22.90;99.90
35129;DHT22;21301;43.626;10.580;2022-10-31T10:28:36;23.10;99.90
35129;DHT22;21301;43.626;10.580;2022-10-31T10:31:15;23.40;99.90
35129;DHT22;21301;43.626;10.580;2022-10-31T10:36:45;23.50;99.90
35129;DHT22;21301;43.626;10.580;2022-10-31T10:39:18;23.80;99.90
35129;DHT22;21301;43.626;10.580;2022-10-31T10:41:48;23.70;99.90
35129;DHT22;21301;43.626;10.580;2022-10-31T10:44:34;24.00;99.90
35129;DHT22;21301;43.626;10.580;2022-10-31T10:47:21;23.50;99.90
35129;DHT22;21301;43.626;10.580;2022-10-31T10:50:31;24.10;99.90
35129;DHT22;21301;43.626;10.580;2022-10-31T10:58:15;23.70;99.90
35129;DHT22;21301;43.626;10.580;2022-10-31T11:00:46;23.50;99.90
35129;DHT22;21301;43.626;10.580;2022-10-31T11:03:14;23.70;99.90
35129;DHT22;21301;43.626;10.580;2022-10-31T11:05:54;24.10;99.90
35129;DHT22;21301;43.626;10.580;2022-10-31T11:08:34;24.40;99.90
35129;DHT22;21301;43.626;10.580;2022-10-31T11:11:03;24.40;99.90
35129;DHT22;21301;43.626;10.580;2022-10-31T11:13:31;24.10;99.90
35129;DHT22;21301;43.626;10.580;2022-10-31T11:18:50;24.60;99.90
35129;DHT22;21301;43.626;10.580;2022-10-31T11:21:29;24.70;99.90
35129;DHT22;21301;43.626;10.580;2022-10-31T11:26:34;25.10;99.90
35129;DHT22;21301;43.626;10.580;2022-10-31T11:29:01;25.20;99.90
35129;DHT22;21301;43.626;10.580;2022-10-31T11:31:32;25.30;99.90
35129;DHT22;21301;43.626;10.580;2022-10-31T11:34:03;25.20;99.90
35129;DHT22;21301;43.626;10.580;2022-10-31T11:36:34;25.10;99.70
35129;DHT22;21301;43.626;10.580;2022-10-31T11:39:03;25.20;99.60
35129;DHT22;21301;43.626;10.580;2022-10-31T11:41:33;25.30;99.20
35129;DHT22;21301;43.626;10.580;2022-10-31T11:46:51;25.30;99.10
35129;DHT22;21301;43.626;10.580;2022-10-31T11:49:39;24.90;97.50
35129;DHT22;21301;43.626;10.580;2022-10-31T11:52:08;24.70;98.00
35129;DHT22;21301;43.626;10.580;2022-10-31T11:55:00;24.80;99.40
35129;DHT22;21301;43.626;10.580;2022-10-31T11:57:32;24.70;98.60
35129;DHT22;21301;43.626;10.580;2022-10-31T12:00:03;24.90;98.40
35129;DHT22;21301;43.626;10.580;2022-10-31T12:02:37;24.70;98.60
35129;DHT22;21301;43.626;10.580;2022-10-31T12:05:23;24.50;99.00
35129;DHT22;21301;43.626;10.580;2022-10-31T12:07:50;24.60;98.70
35129;DHT22;21301;43.626;10.580;2022-10-31T12:10:19;24.70;99.30
35129;DHT22;21301;43.626;10.580;2022-10-31T12:13:08;24.60;99.30
35129;DHT22;21301;43.626;10.580;2022-10-31T12:15:38;24.70;98.90
35129;DHT22;21301;43.626;10.580;2022-10-31T12:31:56;24.70;99.70
35129;DHT22;21301;43.626;10.580;2022-10-31T12:37:46;24.80;99.30
35129;DHT22;21301;43.626;10.580;2022-10-31T12:45:55;25.20;98.60
35129;DHT22;21301;43.626;10.580;2022-10-31T12:51:18;24.90;97.50
35129;DHT22;21301;43.626;10.580;2022-10-31T12:56:34;25.00;98.10
35129;DHT22;21301;43.626;10.580;2022-10-31T12:59:13;24.90;98.60
35129;DHT22;21301;43.626;10.580;2022-10-31T13:06:56;24.60;98.10
35129;DHT22;21301;43.626;10.580;2022-10-31T13:09:38;24.60;98.40
35129;DHT22;21301;43.626;10.580;2022-10-31T13:12:10;24.50;98.30
35129;DHT22;21301;43.626;10.580;2022-10-31T13:14:41;24.40;98.20
35129;DHT22;21301;43.626;10.580;2022-10-31T13:17:26;24.50;98.10
35129;DHT22;21301;43.626;10.580;2022-10-31T13:19:59;24.40;98.00
35129;DHT22;21301;43.626;10.580;2022-10-31T13:22:31;24.40;98.00
35129;DHT22;21301;43.626;10.580;2022-10-31T13:25:13;24.50;98.10
35129;DHT22;21301;43.626;10.580;2022-10-31T13:27:55;24.60;97.50
35129;DHT22;21301;43.626;10.580;2022-10-31T13:30:27;24.60;97.50
35129;DHT22;21301;43.626;10.580;2022-10-31T13:35:43;24.50;97.50
35129;DHT22;21301;43.626;10.580;2022-10-31T13:44:20;24.30;97.10
35129;DHT22;21301;43.626;10.580;2022-10-31T13:46:47;24.30;96.80
35129;DHT22;21301;43.626;10.580;2022-10-31T13:54:46;24.20;97.00
35129;DHT22;21301;43.626;10.580;2022-10-31T13:59:49;24.30;97.10
35129;DHT22;21301;43.626;10.580;2022-10-31T14:02:19;24.40;97.00
35129;DHT22;21301;43.626;10.580;2022-10-31T14:04:50;24.40;96.70
35129;DHT22;21301;43.626;10.580;2022-10-31T14:07:20;24.30;96.60
35129;DHT22;21301;43.626;10.580;2022-10-31T14:09:55;24.30;96.30
35129;DHT22;21301;43.626;10.580;2022-10-31T14:14:54;24.20;96.50
35129;DHT22;21301;43.626;10.580;2022-10-31T14:17:26;24.20;97.00
35129;DHT22;21301;43.626;10.580;2022-10-31T14:20:22;24.30;96.80
35129;DHT22;21301;43.626;10.580;2022-10-31T14:22:45;24.40;96.30
35129;DHT22;21301;43.626;10.580;2022-10-31T14:25:32;24.40;96.30
35129;DHT22;21301;43.626;10.580;2022-10-31T14:28:00;24.20;95.10
35129;DHT22;21301;43.626;10.580;2022-10-31T14:30:28;24.20;96.10
35129;DHT22;21301;43.626;10.580;2022-10-31T14:33:00;24.20;96.10
35129;DHT22;21301;43.626;10.580;2022-10-31T14:35:42;24.10;96.20
35129;DHT22;21301;43.626;10.580;2022-10-31T14:38:26;24.10;96.60
35129;DHT22;21301;43.626;10.580;2022-10-31T14:41:19;24.10;96.70
35129;DHT22;21301;43.626;10.580;2022-10-31T14:51:46;23.90;98.70
35129;DHT22;21301;43.626;10.580;2022-10-31T14:54:18;23.90;98.30
35129;DHT22;21301;43.626;10.580;2022-10-31T14:57:20;23.90;98.00
35129;DHT22;21301;43.626;10.580;2022-10-31T14:59:51;23.90;98.10
35129;DHT22;21301;43.626;10.580;2022-10-31T15:02:24;23.90;98.80
35129;DHT22;21301;43.626;10.580;2022-10-31T15:04:52;23.70;99.20
35129;DHT22;21301;43.626;10.580;2022-10-31T15:07:24;23.60;99.40
35129;DHT22;21301;43.626;10.580;2022-10-31T15:10:05;23.60;99.90
35129;DHT22;21301;43.626;10.580;2022-10-31T15:12:34;23.50;99.90
35129;DHT22;21301;43.626;10.580;2022-10-31T15:15:25;23.40;99.90
35129;DHT22;21301;43.626;10.580;2022-10-31T15:17:59;23.30;99.90
35129;DHT22;21301;43.626;10.580;2022-10-31T15:20:30;23.20;99.90
35129;DHT22;21301;43.626;10.580;2022-10-31T15:22:58;23.20;99.90
35129;DHT22;21301;43.626;10.580;2022-10-31T15:25:27;23.10;99.90
35129;DHT22;21301;43.626;10.580;2022-10-31T15:27:53;23.00;99.90
35129;DHT22;21301;43.626;10.580;2022-10-31T15:30:28;22.90;99.90
35129;DHT22;21301;43.626;10.580;2022-10-31T15:32:54;22.90;99.90
35129;DHT22;21301;43.626;10.580;2022-10-31T15:37:55;22.70;99.90
35129;DHT22;21301;43.626;10.580;2022-10-31T15:40:23;22.50;99.90
35129;DHT22;21301;43.626;10.580;2022-10-31T15:42:59;22.40;99.90
35129;DHT22;21301;43.626;10.580;2022-10-31T15:45:27;22.20;99.90
35129;DHT22;21301;43.626;10.580;2022-10-31T15:48:11;22.20;99.90
35129;DHT22;21301;43.626;10.580;2022-10-31T15:50:41;21.90;99.90
35129;DHT22;21301;43.626;10.580;2022-10-31T15:56:08;21.80;99.90
35129;DHT22;21301;43.626;10.580;2022-10-31T15:58:46;21.70;99.90
35129;DHT22;21301;43.626;10.580;2022-10-31T16:01:27;21.60;99.90
35129;DHT22;21301;43.626;10.580;2022-10-31T16:04:01;21.40;99.90
35129;DHT22;21301;43.626;10.580;2022-10-31T16:06:28;21.20;99.90
35129;DHT22;21301;43.626;10.580;2022-10-31T16:08:53;21.20;99.90
35129;DHT22;21301;43.626;10.580;2022-10-31T16:14:15;21.30;99.90
35129;DHT22;21301;43.626;10.580;2022-10-31T16:16:45;21.10;99.90
35129;DHT22;21301;43.626;10.580;2022-10-31T16:21:43;20.70;99.90
35129;DHT22;21301;43.626;10.580;2022-10-31T16:24:31;20.80;99.90
35129;DHT22;21301;43.626;10.580;2022-10-31T16:27:21;20.90;99.90
35129;DHT22;21301;43.626;10.580;2022-10-31T16:29:52;20.90;99.90
35129;DHT22;21301;43.626;10.580;2022-10-31T16:32:52;20.70;99.90
35129;DHT22;21301;43.626;10.580;2022-10-31T16:35:35;20.50;99.90
35129;DHT22;21301;43.626;10.580;2022-10-31T16:38:01;20.60;99.90
35129;DHT22;21301;43.626;10.580;2022-10-31T16:40:28;20.70;99.90
35129;DHT22;21301;43.626;10.580;2022-10-31T16:42:59;20.60;99.90
35129;DHT22;21301;43.626;10.580;2022-10-31T16:45:31;20.50;99.90
35129;DHT22;21301;43.626;10.580;2022-10-31T16:48:06;20.40;99.90
35129;DHT22;21301;43.626;10.580;2022-10-31T16:50:35;20.50;99.90
35129;DHT22;21301;43.626;10.580;2022-10-31T16:53:02;20.60;99.90
35129;DHT22;21301;43.626;10.580;2022-10-31T16:55:28;20.50;99.90
35129;DHT22;21301;43.626;10.580;2022-10-31T16:57:56;20.50;99.90
35129;DHT22;21301;43.626;10.580;2022-10-31T17:00:24;20.40;99.90
35129;DHT22;21301;43.626;10.580;2022-10-31T17:02:51;20.40;99.90
35129;DHT22;21301;43.626;10.580;2022-10-31T17:05:19;20.40;99.90
35129;DHT22;21301;43.626;10.580;2022-10-31T17:07:46;20.40;99.90
35129;DHT22;21301;43.626;10.580;2022-10-31T17:10:13;20.30;99.90
35129;DHT22;21301;43.626;10.580;2022-10-31T17:12:43;20.30;99.90
35129;DHT22;21301;43.626;10.580;2022-10-31T17:17:41;20.30;99.90
35129;DHT22;21301;43.626;10.580;2022-10-31T17:20:25;20.30;99.90
35129;DHT22;21301;43.626;10.580;2022-10-31T17:22:52;20.20;99.90
35129;DHT22;21301;43.626;10.580;2022-10-31T17:25:23;20.10;99.90
35129;DHT22;21301;43.626;10.580;2022-10-31T17:27:50;20.10;99.90
35129;DHT22;21301;43.626;10.580;2022-10-31T17:30:17;20.00;99.90
35129;DHT22;21301;43.626;10.580;2022-10-31T17:32:44;19.60;99.90
35129;DHT22;21301;43.626;10.580;2022-10-31T17:35:11;19.30;99.90
35129;DHT22;21301;43.626;10.580;2022-10-31T17:37:38;19.20;99.90
35129;DHT22;21301;43.626;10.580;2022-10-31T17:40:04;19.40;99.90
35129;DHT22;21301;43.626;10.580;2022-10-31T17:42:33;19.60;99.90
35129;DHT22;21301;43.626;10.580;2022-10-31T17:44:59;19.50;99.90
35129;DHT22;21301;43.626;10.580;2022-10-31T17:47:25;19.50;99.90
35129;DHT22;21301;43.626;10.580;2022-10-31T17:49:51;19.50;99.90
35129;DHT22;21301;43.626;10.580;2022-10-31T17:52:18;19.50;99.90
35129;DHT22;21301;43.626;10.580;2022-10-31T17:54:44;19.40;99.90
35129;DHT22;21301;43.626;10.580;2022-10-31T17:57:10;19.30;99.90
35129;DHT22;21301;43.626;10.580;2022-10-31T17:59:36;19.00;99.90
35129;DHT22;21301;43.626;10.580;2022-10-31T18:02:02;19.00;99.90
35129;DHT22;21301;43.626;10.580;2022-10-31T18:04:37;18.90;99.90